Time;durP1;ratioP1;P1;durP2;ratioP2;P2;SDS_P1;SDS_P2;PMS_P1;PMS_P2;Temp;Humidity;BMP_temperature;BMP_pressure;BME280_temperature;BME280_humidity;BME280_pressure;Samples;Min_cycle;Max_cycle;Signal;HPM_P1;HPM_P2
2022/02/03 14:45:18;;;;;;;2.53;1.30;;;10.00;83.80;;;;;;5086916;27;1416467;-59
2022/02/03 14:47:45;;;;;;;5.93;1.30;;;10.00;84.70;;;;;;5112809;28;20052;-61
2022/02/03 14:50:13;;;;;;;6.93;1.20;;;10.00;84.50;;;;;;5110413;28;20071;-60
2022/02/03 14:58:23;;;;;;;3.72;1.30;;;10.10;84.20;;;;;;5110101;28;20043;-61
2022/02/03 15:00:50;;;;;;;8.20;1.58;;;10.20;84.00;;;;;;5109442;28;20490;-59
2022/02/03 15:03:17;;;;;;;3.30;1.40;;;10.20;83.80;;;;;;5108124;28;20058;-60
2022/02/03 15:05:49;;;;;;;4.70;1.17;;;10.30;83.70;;;;;;5109892;28;20112;-53
2022/02/03 15:08:21;;;;;;;2.60;1.40;;;10.30;83.50;;;;;;5109114;28;20043;-56
2022/02/03 15:11:06;;;;;;;3.67;1.40;;;10.30;82.60;;;;;;5109879;28;20044;-57
2022/02/03 15:13:48;;;;;;;3.03;1.33;;;10.30;82.50;;;;;;5109923;28;20104;-61
2022/02/03 15:16:15;;;;;;;4.00;1.58;;;10.40;82.80;;;;;;5109572;28;20036;-56
2022/02/03 15:19:02;;;;;;;4.93;1.10;;;10.40;82.80;;;;;;5108374;28;20050;-60
2022/02/03 15:21:29;;;;;;;4.25;1.20;;;10.40;82.60;;;;;;5109722;28;20040;-62
2022/02/03 15:23:56;;;;;;;5.22;1.20;;;10.40;82.50;;;;;;5109692;28;20127;-60
2022/02/03 15:26:23;;;;;;;6.45;1.70;;;10.50;82.50;;;;;;5109427;28;20544;-61
2022/02/03 15:28:50;;;;;;;3.13;1.20;;;10.50;82.50;;;;;;5109509;28;20474;-58
2022/02/03 15:31:19;;;;;;;5.88;1.48;;;10.50;82.10;;;;;;5108849;28;20066;-56
2022/02/03 15:33:54;;;;;;;4.30;1.50;;;10.50;82.10;;;;;;5108943;28;20040;-60
2022/02/03 15:36:21;;;;;;;3.92;1.40;;;10.50;82.10;;;;;;5107298;28;20047;-55
2022/02/03 15:38:49;;;;;;;3.97;1.48;;;10.50;82.10;;;;;;5104715;28;20105;-55
2022/02/03 15:41:23;;;;;;;5.72;2.80;;;10.50;81.60;;;;;;5109383;28;20040;-57
2022/02/03 15:43:51;;;;;;;10.05;5.68;;;10.50;81.40;;;;;;5109246;28;20434;-61
2022/02/03 15:46:20;;;;;;;8.15;5.82;;;10.50;81.60;;;;;;5108261;28;20074;-57
2022/02/03 15:48:56;;;;;;;5.93;4.47;;;10.50;82.00;;;;;;5107122;28;20032;-60
2022/02/03 16:02:43;;;;;;;8.50;5.65;;;10.50;81.70;;;;;;5088620;28;20047;-58
2022/02/03 16:18:31;;;;;;;9.73;3.17;;;10.30;82.80;;;;;;5094948;28;20040;-59
2022/02/03 16:21:12;;;;;;;4.65;2.80;;;10.30;82.80;;;;;;5095110;28;20052;-52
2022/02/03 16:40:48;;;;;;;4.60;1.70;;;10.30;82.90;;;;;;5089692;28;20483;-58
2022/02/03 16:51:15;;;;;;;5.05;1.77;;;10.30;82.60;;;;;;5094097;28;20062;-55
2022/02/03 16:53:42;;;;;;;4.55;1.40;;;10.30;82.50;;;;;;5094379;28;20480;-62
2022/02/03 16:56:11;;;;;;;7.22;1.50;;;10.30;82.50;;;;;;5094228;28;20089;-56
2022/02/03 16:58:41;;;;;;;4.35;1.63;;;10.30;82.10;;;;;;5092656;28;20042;-58
2022/02/03 17:01:08;;;;;;;3.55;1.60;;;10.30;82.20;;;;;;5091922;28;20044;-55
2022/02/03 17:03:34;;;;;;;5.10;1.70;;;10.40;82.20;;;;;;5093277;28;20577;-55
2022/02/03 17:06:01;;;;;;;3.78;2.17;;;10.30;82.10;;;;;;5093283;28;20060;-55
2022/02/03 17:08:28;;;;;;;3.90;2.17;;;10.30;82.10;;;;;;5092457;28;20047;-59
2022/02/03 17:10:55;;;;;;;3.50;1.63;;;10.30;82.50;;;;;;5093469;28;20442;-58
2022/02/03 17:13:21;;;;;;;4.78;2.30;;;10.20;82.50;;;;;;5091974;28;20040;-58
2022/02/03 17:15:48;;;;;;;3.33;1.92;;;10.20;82.50;;;;;;5087504;28;20040;-62
2022/02/03 17:18:16;;;;;;;3.65;1.55;;;10.20;82.20;;;;;;5093462;28;20046;-60
2022/02/03 17:20:43;;;;;;;4.15;1.92;;;10.20;82.30;;;;;;5093149;28;20085;-54
2022/02/03 17:23:15;;;;;;;5.18;2.28;;;10.20;82.00;;;;;;5093200;28;20484;-56
2022/02/03 17:25:50;;;;;;;7.03;2.53;;;10.20;81.90;;;;;;5092983;28;20046;-59
2022/02/03 17:28:52;;;;;;;3.88;2.65;;;10.20;81.90;;;;;;5092850;28;20052;-54
2022/02/03 17:31:49;;;;;;;4.30;2.25;;;10.20;82.10;;;;;;5093186;28;20109;-53
2022/02/03 18:31:45;;;;;;;4.93;3.00;;;10.00;84.00;;;;;;5093175;28;20044;-59
2022/02/03 18:50:16;;;;;;;9.65;3.85;;;10.00;84.50;;;;;;5092273;28;20044;-55
2022/02/03 18:53:12;;;;;;;10.18;4.40;;;10.00;84.70;;;;;;5092425;28;20051;-62
2022/02/03 18:56:13;;;;;;;6.47;3.90;;;10.00;85.10;;;;;;5092429;28;20498;-62
2022/02/03 19:14:53;;;;;;;6.57;3.42;;;9.80;86.50;;;;;;5092227;28;20039;-55
2022/02/03 19:26:05;;;;;;;5.40;3.03;;;9.80;86.80;;;;;;5092048;28;20036;-53
2022/02/03 20:04:33;;;;;;;7.45;3.90;;;9.50;88.80;;;;;;5095777;28;20459;-57
2022/02/03 20:07:45;;;;;;;6.65;3.80;;;9.50;89.30;;;;;;5095708;28;20044;-59
2022/02/03 20:12:26;;;;;;;7.13;4.05;;;9.50;89.60;;;;;;5095506;28;20055;-57
2022/02/03 20:14:53;;;;;;;6.32;4.47;;;9.50;89.90;;;;;;5095390;28;20422;-58
2022/02/03 20:17:20;;;;;;;6.45;3.78;;;9.50;90.00;;;;;;5095368;28;20044;-53
2022/02/03 20:19:47;;;;;;;6.07;4.03;;;9.50;90.10;;;;;;5095352;28;20040;-60
2022/02/03 20:22:14;;;;;;;7.65;4.47;;;9.50;90.20;;;;;;5095390;28;20139;-57
2022/02/03 20:24:41;;;;;;;10.02;5.15;;;9.50;90.30;;;;;;5095343;28;20097;-57
2022/02/03 20:27:08;;;;;;;10.90;5.55;;;9.50;90.40;;;;;;5095211;28;20048;-57
2022/02/03 20:29:35;;;;;;;6.82;3.80;;;9.50;90.40;;;;;;5094879;28;20079;-59
2022/02/03 20:32:01;;;;;;;7.07;3.78;;;9.50;90.50;;;;;;5090621;28;20044;-55
2022/02/03 20:34:28;;;;;;;6.97;3.55;;;9.50;90.40;;;;;;5095127;28;20403;-59
2022/02/03 20:36:55;;;;;;;5.45;3.33;;;9.50;90.30;;;;;;5089590;28;20043;-59
2022/02/03 20:39:22;;;;;;;6.60;3.90;;;9.50;90.30;;;;;;5088415;28;20044;-56
2022/02/03 20:41:48;;;;;;;9.93;4.05;;;9.60;90.30;;;;;;5093967;28;20036;-55
2022/02/03 20:44:15;;;;;;;7.20;3.30;;;9.60;90.20;;;;;;5094374;28;20048;-57
2022/02/03 20:46:42;;;;;;;5.20;3.10;;;9.50;90.30;;;;;;5096043;28;20047;-53
2022/02/03 20:49:09;;;;;;;5.57;3.40;;;9.50;90.40;;;;;;5096298;28;20093;-60
2022/02/03 20:51:35;;;;;;;6.47;3.20;;;9.40;90.50;;;;;;5095472;28;20135;-55
2022/02/03 20:54:02;;;;;;;6.93;3.70;;;9.40;90.70;;;;;;5093472;28;20044;-55
2022/02/03 20:56:29;;;;;;;6.85;3.70;;;9.30;90.90;;;;;;5094269;28;20044;-60
2022/02/03 20:59:00;;;;;;;6.78;4.00;;;9.30;91.10;;;;;;5093430;28;20040;-60
2022/02/03 21:01:31;;;;;;;6.45;3.50;;;9.30;91.30;;;;;;5094426;28;20475;-53
2022/02/03 21:04:11;;;;;;;6.72;3.60;;;9.30;91.20;;;;;;5094459;28;20044;-56
2022/02/03 21:06:38;;;;;;;12.45;3.80;;;9.30;91.20;;;;;;5091976;28;20044;-60
2022/02/03 21:09:07;;;;;;;8.82;4.75;;;9.30;91.30;;;;;;5092869;28;20040;-58
2022/02/03 21:11:34;;;;;;;6.90;4.13;;;9.30;91.50;;;;;;5092939;28;20079;-60
2022/02/03 21:14:05;;;;;;;7.07;4.35;;;9.20;91.70;;;;;;5091993;28;20044;-57
2022/02/03 21:16:35;;;;;;;7.65;4.10;;;9.20;91.70;;;;;;5094156;28;20044;-57
2022/02/03 21:19:02;;;;;;;9.48;4.30;;;9.20;91.90;;;;;;5094594;28;20040;-57
2022/02/03 21:21:30;;;;;;;8.35;4.45;;;9.20;91.80;;;;;;5094168;28;20118;-57
2022/02/03 21:23:57;;;;;;;8.88;4.38;;;9.20;91.90;;;;;;5094253;28;20383;-60
2022/02/03 21:26:33;;;;;;;8.68;4.10;;;9.20;91.90;;;;;;5093876;28;20495;-58
2022/02/03 21:29:00;;;;;;;10.98;3.92;;;9.20;92.00;;;;;;5091952;28;20062;-57
2022/02/03 21:31:26;;;;;;;9.30;3.83;;;9.10;91.80;;;;;;5093981;28;20129;-58
2022/02/03 21:33:56;;;;;;;7.55;4.22;;;9.10;92.00;;;;;;5108656;28;20635;-57
2022/02/03 21:36:25;;;;;;;9.05;3.95;;;9.10;92.20;;;;;;5093480;28;20044;-61
2022/02/03 21:38:52;;;;;;;7.78;3.88;;;9.10;92.30;;;;;;5092881;28;20051;-58
2022/02/03 21:41:18;;;;;;;8.20;3.88;;;9.10;92.20;;;;;;5091095;28;20165;-57
2022/02/03 21:43:45;;;;;;;8.35;3.67;;;9.10;92.20;;;;;;5090408;28;20055;-58
2022/02/03 21:46:12;;;;;;;6.63;3.50;;;9.10;92.20;;;;;;5088642;28;20124;-60
2022/02/03 21:48:44;;;;;;;8.10;4.20;;;9.10;92.20;;;;;;5087934;28;20090;-54
2022/02/03 21:51:14;;;;;;;7.82;3.45;;;9.10;92.10;;;;;;5087862;28;20430;-54
2022/02/03 21:53:41;;;;;;;10.45;4.05;;;9.20;92.20;;;;;;5091424;28;20044;-51
2022/02/03 21:56:07;;;;;;;6.93;3.55;;;9.20;92.30;;;;;;5090525;28;20400;-54
2022/02/03 21:58:34;;;;;;;6.60;3.78;;;9.20;92.10;;;;;;5088014;28;20051;-56
2022/02/03 22:01:04;;;;;;;9.50;4.18;;;9.20;92.20;;;;;;5093260;28;20036;-56
2022/02/03 22:03:31;;;;;;;6.70;4.10;;;9.20;92.30;;;;;;5092554;28;20039;-60
2022/02/03 22:05:58;;;;;;;11.38;4.68;;;9.20;92.30;;;;;;5092908;28;20055;-58
2022/02/03 22:08:25;;;;;;;11.88;6.13;;;9.20;92.40;;;;;;5092842;28;20051;-58
2022/02/03 22:11:00;;;;;;;8.98;4.43;;;9.20;92.40;;;;;;5092212;28;20032;-58
2022/02/03 22:13:33;;;;;;;10.27;5.40;;;9.20;92.40;;;;;;5092913;28;20047;-58
2022/02/03 22:16:05;;;;;;;7.32;5.05;;;9.20;92.40;;;;;;5092990;28;20047;-54
2022/02/03 22:18:32;;;;;;;5.28;4.38;;;9.30;92.40;;;;;;5093106;28;20051;-56
2022/02/03 22:21:16;;;;;;;9.00;5.32;;;9.30;92.50;;;;;;5093061;28;20471;-56
2022/02/03 22:23:53;;;;;;;10.70;5.78;;;9.30;92.50;;;;;;5092888;28;20040;-56
2022/02/03 22:42:32;;;;;;;10.32;4.35;;;9.00;92.60;;;;;;5059043;28;20063;-57
2022/02/03 22:50:01;;;;;;;8.82;3.90;;;8.80;92.80;;;;;;5087279;28;20050;-59
2022/02/03 22:52:28;;;;;;;7.78;3.85;;;8.80;92.80;;;;;;5107743;28;20499;-60
2022/02/03 22:54:55;;;;;;;8.88;3.55;;;8.90;92.80;;;;;;5091612;28;20052;-55
2022/02/03 22:57:22;;;;;;;8.68;3.75;;;8.90;92.80;;;;;;5092306;28;20082;-59
2022/02/03 23:02:36;;;;;;;7.38;2.83;;;9.00;92.40;;;;;;5091457;28;20396;-57
2022/02/03 23:05:02;;;;;;;5.53;2.72;;;9.00;92.20;;;;;;5092844;28;20068;-57
2022/02/03 23:10:22;;;;;;;6.45;2.13;;;9.10;91.90;;;;;;5094626;28;20457;-57
2022/02/03 23:18:08;;;;;;;6.40;2.45;;;9.20;91.60;;;;;;5088634;28;20040;-58
2022/02/03 23:20:51;;;;;;;7.07;2.28;;;9.20;91.70;;;;;;5095026;28;20052;-59
2022/02/03 23:23:17;;;;;;;6.22;2.28;;;9.30;91.70;;;;;;5096159;28;20048;-56
2022/02/03 23:25:45;;;;;;;7.18;2.20;;;9.30;91.80;;;;;;5096154;28;20052;-60
2022/02/03 23:28:27;;;;;;;10.88;2.60;;;9.30;91.70;;;;;;5094651;28;20047;-56
2022/02/03 23:30:54;;;;;;;10.85;2.67;;;9.30;91.70;;;;;;5091950;28;20046;-56
2022/02/03 23:33:22;;;;;;;8.82;2.40;;;9.30;91.70;;;;;;5092838;28;20036;-57
